createdAt,value
2018-03-03T00:01:53.459Z,117.93
2018-03-03T00:04:20.502Z,101.93
2018-03-03T00:06:46.725Z,126.30
2018-03-03T00:09:12.959Z,109.70
2018-03-03T00:11:39.157Z,105.35
2018-03-03T00:14:06.945Z,102.10
2018-03-03T00:16:33.199Z,104.28
2018-03-03T00:18:59.408Z,118.75
2018-03-03T00:21:25.586Z,101.82
2018-03-03T00:23:51.739Z,104.50
2018-03-03T00:26:18.678Z,112.43
2018-03-03T00:28:45.643Z,112.75
2018-03-03T00:31:11.847Z,109.25
2018-03-03T00:33:38.781Z,95.95
2018-03-03T00:36:04.952Z,105.35
2018-03-03T00:38:31.099Z,103.28
2018-03-03T00:40:57.367Z,106.00
2018-03-03T00:43:23.513Z,103.12
2018-03-03T00:45:50.447Z,109.45
2018-03-03T00:48:17.493Z,97.53
2018-03-03T00:50:44.417Z,102.53
2018-03-03T00:53:10.612Z,111.57
2018-03-03T00:55:36.857Z,108.95
2018-03-03T00:58:03.055Z,107.95
2018-03-03T01:00:29.238Z,110.57
2018-03-03T01:02:55.524Z,93.65
2018-03-03T01:05:21.743Z,111.85
2018-03-03T01:07:47.926Z,99.80
2018-03-03T01:10:14.115Z,109.95
2018-03-03T01:12:40.349Z,103.47
2018-03-03T01:15:06.542Z,104.55
2018-03-03T01:17:32.713Z,105.57
2018-03-03T01:19:59.047Z,102.90
2018-03-03T01:22:25.233Z,102.72
2018-03-03T01:24:51.402Z,106.85
2018-03-03T01:27:17.600Z,103.80
2018-03-03T01:29:43.814Z,111.95
2018-03-03T01:32:10.682Z,100.10
2018-03-03T01:34:36.949Z,107.12
2018-03-03T01:37:03.159Z,100.75
2018-03-03T01:39:29.376Z,104.68
2018-03-03T01:41:55.617Z,106.10
2018-03-03T01:44:21.832Z,97.47
2018-03-03T01:46:48.059Z,104.32
2018-03-03T01:49:14.285Z,115.68
2018-03-03T01:51:41.580Z,101.20
2018-03-03T01:54:07.791Z,117.93
2018-03-03T01:56:34.059Z,112.85
2018-03-03T01:59:01.026Z,101.87
2018-03-03T02:01:27.330Z,103.03
2018-03-03T02:03:53.549Z,115.30
2018-03-03T02:06:19.766Z,115.90
2018-03-03T02:08:45.928Z,118.30
2018-03-03T02:11:12.918Z,110.32
2018-03-03T02:13:39.137Z,109.68
2018-03-03T02:16:05.306Z,109.78
2018-03-03T02:18:31.541Z,110.85
2018-03-03T02:20:57.711Z,110.70
2018-03-03T02:23:23.926Z,108.28
2018-03-03T02:25:50.822Z,109.20
2018-03-03T02:28:17.349Z,104.57
2018-03-03T02:30:43.566Z,105.78
2018-03-03T02:33:09.783Z,114.72
2018-03-03T02:35:35.948Z,106.15
2018-03-03T02:38:02.162Z,107.93
2018-03-03T02:40:28.363Z,113.68
2018-03-03T02:42:54.617Z,110.70
2018-03-03T02:45:20.822Z,104.70
2018-03-03T02:47:46.975Z,113.35
2018-03-03T02:50:13.195Z,116.05
2018-03-03T02:52:39.394Z,123.62
2018-03-03T02:55:05.682Z,115.28
2018-03-03T02:57:31.830Z,107.05
2018-03-03T02:59:58.797Z,114.10
2018-03-03T03:02:24.967Z,106.25
2018-03-03T03:04:51.223Z,112.15
2018-03-03T03:07:17.960Z,115.18
2018-03-03T03:09:44.171Z,106.45
2018-03-03T03:12:10.360Z,112.43
2018-03-03T03:14:36.561Z,110.53
2018-03-03T03:17:03.472Z,106.10
2018-03-03T03:19:29.674Z,112.05
2018-03-03T03:21:56.165Z,112.65
2018-03-03T03:24:22.366Z,118.45
2018-03-03T03:26:48.806Z,114.75
2018-03-03T03:29:14.783Z,116.30
2018-03-03T03:31:40.946Z,114.12
2018-03-03T03:34:07.124Z,117.03
2018-03-03T03:36:34.089Z,113.43
2018-03-03T03:39:00.272Z,113.78
2018-03-03T03:41:26.471Z,112.82
2018-03-03T03:43:52.638Z,108.32
2018-03-03T03:46:19.606Z,111.82
2018-03-03T03:48:45.783Z,111.05
2018-03-03T03:51:11.985Z,125.90
2018-03-03T03:53:38.135Z,121.87
2018-03-03T03:56:04.335Z,113.18
2018-03-03T03:58:30.536Z,123.68
2018-03-03T04:00:57.486Z,106.07
2018-03-03T04:03:25.158Z,107.82
2018-03-03T04:05:51.322Z,127.93
2018-03-03T04:08:17.580Z,106.72
2018-03-03T04:10:44.163Z,109.72
2018-03-03T04:13:10.338Z,111.85
2018-03-03T04:15:36.572Z,117.15
2018-03-03T04:18:02.757Z,121.90
2018-03-03T04:20:28.947Z,109.60
2018-03-03T04:22:55.922Z,101.43
2018-03-03T04:25:22.195Z,103.95
2018-03-03T04:27:48.440Z,107.65
2018-03-03T04:30:14.625Z,113.75
2018-03-03T04:32:40.831Z,103.38
2018-03-03T04:35:07.193Z,112.85
2018-03-03T04:37:33.422Z,116.15
2018-03-03T04:39:59.578Z,108.60
2018-03-03T04:42:25.835Z,104.45
2018-03-03T04:44:52.757Z,117.03
2018-03-03T04:47:19.043Z,114.37
2018-03-03T04:49:45.197Z,105.57
2018-03-03T04:52:11.424Z,114.97
2018-03-03T04:54:37.638Z,104.93
2018-03-03T04:57:04.996Z,112.15
2018-03-03T04:59:38.059Z,97.82
2018-03-03T05:02:06.043Z,112.93
2018-03-03T05:04:38.302Z,117.03
2018-03-03T05:07:12.598Z,111.35
2018-03-03T05:09:39.540Z,115.72
2018-03-03T05:12:05.755Z,103.80
2018-03-03T05:14:33.452Z,103.47
2018-03-03T05:17:14.536Z,103.28
2018-03-03T05:22:51.069Z,121.00
2018-03-03T05:25:18.223Z,114.05
2018-03-03T05:27:50.647Z,116.10
2018-03-03T05:30:22.980Z,106.53
2018-03-03T05:33:08.084Z,119.13
2018-03-03T05:35:41.120Z,112.90
2018-03-03T05:38:13.467Z,111.45
2018-03-03T05:40:39.662Z,107.55
2018-03-03T05:46:25.635Z,115.68
2018-03-03T05:51:53.552Z,105.82
2018-03-03T05:54:35.717Z,110.95
2018-03-03T05:57:07.989Z,115.55
2018-03-03T06:02:41.100Z,112.55
2018-03-03T06:05:11.154Z,105.10
2018-03-03T06:10:36.357Z,116.68
2018-03-03T06:13:02.555Z,110.10
2018-03-03T06:15:28.998Z,110.60
2018-03-03T06:17:55.252Z,112.80
2018-03-03T06:20:21.791Z,116.65
2018-03-03T06:22:48.208Z,119.97
2018-03-03T06:25:15.219Z,118.03
2018-03-03T06:27:41.390Z,119.93
2018-03-03T06:30:07.753Z,126.00
2018-03-03T06:32:34.712Z,116.22
2018-03-03T06:35:01.650Z,116.18
2018-03-03T06:37:28.957Z,115.22
2018-03-03T06:39:55.194Z,116.53
2018-03-03T06:42:21.349Z,121.78
2018-03-03T06:44:48.078Z,116.37
2018-03-03T06:47:14.285Z,114.35
2018-03-03T06:49:40.477Z,105.72
2018-03-03T06:52:07.425Z,110.68
2018-03-03T06:54:35.552Z,120.35
2018-03-03T06:57:02.050Z,117.22
2018-03-03T06:59:28.303Z,125.70
2018-03-03T07:01:55.577Z,127.62
2018-03-03T07:04:22.290Z,123.93
2018-03-03T07:06:48.463Z,113.60
2018-03-03T07:09:14.905Z,112.55
2018-03-03T07:11:41.376Z,106.75
2018-03-03T07:14:08.833Z,131.60
2018-03-03T07:16:35.098Z,121.10
2018-03-03T07:19:01.309Z,118.95
2018-03-03T07:21:27.847Z,118.95
2018-03-03T07:23:54.096Z,136.37
2018-03-03T07:26:20.482Z,123.22
2018-03-03T07:28:46.782Z,108.37
2018-03-03T07:31:13.763Z,122.47
2018-03-03T07:33:40.050Z,117.85
2018-03-03T07:36:07.053Z,126.43
2018-03-03T07:38:33.262Z,116.75
2018-03-03T07:40:59.622Z,114.03
2018-03-03T07:43:25.830Z,127.65
2018-03-03T07:45:52.026Z,129.77
2018-03-03T07:48:18.880Z,130.77
2018-03-03T07:50:45.839Z,122.22
2018-03-03T07:53:12.034Z,135.75
2018-03-03T07:55:39.339Z,125.57
2018-03-03T07:58:05.547Z,127.32
2018-03-03T08:00:31.859Z,125.47
2018-03-03T08:02:58.238Z,138.65
2018-03-03T08:05:25.631Z,118.47
2018-03-03T08:07:52.012Z,130.07
2018-03-03T08:10:18.374Z,123.00
2018-03-03T08:12:44.651Z,111.18
2018-03-03T08:15:11.644Z,127.82
2018-03-03T08:17:38.008Z,119.45
2018-03-03T08:20:04.258Z,141.57
2018-03-03T08:22:31.187Z,122.65
2018-03-03T08:24:57.576Z,123.35
2018-03-03T08:27:23.800Z,121.22
2018-03-03T08:29:50.036Z,122.68
2018-03-03T08:32:16.266Z,120.53
2018-03-03T08:34:42.438Z,116.00
2018-03-03T08:37:09.372Z,124.60
2018-03-03T08:39:35.606Z,137.23
2018-03-03T08:42:02.544Z,125.38
2018-03-03T08:44:28.736Z,120.00
2018-03-03T08:46:55.089Z,124.68
2018-03-03T08:49:21.289Z,125.35
2018-03-03T08:51:47.632Z,118.47
2018-03-03T08:54:13.977Z,113.85
2018-03-03T08:56:40.142Z,132.85
2018-03-03T08:59:07.535Z,124.50
2018-03-03T09:01:33.745Z,130.85
2018-03-03T09:04:00.987Z,121.28
2018-03-03T09:06:27.989Z,119.78
2018-03-03T09:08:54.214Z,131.37
2018-03-03T09:11:20.509Z,128.10
2018-03-03T09:13:47.002Z,128.62
2018-03-03T09:16:13.170Z,121.37
2018-03-03T09:18:39.482Z,112.60
2018-03-03T09:21:06.431Z,115.55
2018-03-03T09:23:33.426Z,129.95
2018-03-03T09:25:59.648Z,117.15
2018-03-03T09:28:25.931Z,114.43
2018-03-03T09:30:53.015Z,123.30
2018-03-03T09:33:19.267Z,107.53
2018-03-03T09:35:45.598Z,111.03
2018-03-03T09:38:11.805Z,116.37
2018-03-03T09:40:38.001Z,124.70
2018-03-03T09:43:05.003Z,115.30
2018-03-03T09:45:31.269Z,119.07
2018-03-03T09:47:57.510Z,129.63
2018-03-03T09:50:24.715Z,129.98
2018-03-03T09:52:50.934Z,122.00
2018-03-03T09:55:17.147Z,127.93
2018-03-03T09:57:44.137Z,123.62
2018-03-03T10:00:11.378Z,133.50
2018-03-03T10:02:37.639Z,117.30
2018-03-03T10:05:04.726Z,111.45
2018-03-03T10:07:31.785Z,126.57
2018-03-03T10:22:58.090Z,128.77
2018-03-03T10:25:24.315Z,118.25
2018-03-03T10:27:51.531Z,136.30
2018-03-03T10:30:17.803Z,76.43
2018-03-03T10:32:45.195Z,67.95
2018-03-03T10:35:12.455Z,68.20
2018-03-03T10:37:38.720Z,80.93
2018-03-03T10:40:05.714Z,66.93
2018-03-03T10:42:32.021Z,74.15
2018-03-03T10:44:59.509Z,114.28
2018-03-03T10:47:25.883Z,108.30
2018-03-03T10:49:52.851Z,109.05
2018-03-03T10:52:19.064Z,116.10
2018-03-03T10:54:46.052Z,112.57
2018-03-03T10:57:12.319Z,118.60
2018-03-03T10:59:38.620Z,117.43
2018-03-03T11:02:04.868Z,115.47
2018-03-03T11:04:31.098Z,101.22
2018-03-03T11:06:59.192Z,115.22
2018-03-03T11:09:25.535Z,122.45
2018-03-03T11:11:52.504Z,115.57
2018-03-03T11:14:19.117Z,105.35
2018-03-03T11:16:46.179Z,114.37
2018-03-03T11:19:14.209Z,115.72
2018-03-03T11:21:40.415Z,113.82
2018-03-03T11:24:06.672Z,106.78
2018-03-03T11:26:32.904Z,110.65
2018-03-03T11:28:59.227Z,110.90
2018-03-03T11:31:25.460Z,107.28
2018-03-03T11:33:51.734Z,123.80
2018-03-03T11:36:18.003Z,110.88
2018-03-03T11:38:44.241Z,108.75
2018-03-03T11:41:10.533Z,117.28
2018-03-03T11:43:37.624Z,101.70
2018-03-03T11:46:04.237Z,117.50
2018-03-03T11:48:30.486Z,124.03
2018-03-03T11:50:56.740Z,108.43
2018-03-03T11:53:23.816Z,103.03
2018-03-03T11:55:50.109Z,96.10
2018-03-03T11:58:16.366Z,90.65
2018-03-03T12:00:42.623Z,85.72
2018-03-03T12:03:08.978Z,83.60
2018-03-03T12:05:35.209Z,93.50
2018-03-03T12:08:02.321Z,88.87
2018-03-03T12:10:28.594Z,87.37
2018-03-03T12:12:54.900Z,86.82
2018-03-03T12:15:21.242Z,92.90
2018-03-03T12:17:47.471Z,88.37
2018-03-03T12:20:13.750Z,90.18
2018-03-03T12:22:40.028Z,87.30
2018-03-03T12:25:06.264Z,84.22
2018-03-03T12:27:32.490Z,90.40
2018-03-03T12:29:58.746Z,80.47
2018-03-03T12:32:25.370Z,95.97
2018-03-03T12:34:51.697Z,89.40
2018-03-03T12:37:19.676Z,92.60
2018-03-03T12:39:46.068Z,83.80
2018-03-03T12:42:12.306Z,84.80
2018-03-03T12:44:38.580Z,86.63
2018-03-03T12:47:05.662Z,87.45
2018-03-03T12:49:31.842Z,75.50
2018-03-03T12:51:58.109Z,86.57
2018-03-03T12:54:25.080Z,84.87
2018-03-03T12:56:51.429Z,90.93
2018-03-03T12:59:17.689Z,80.75
2018-03-03T13:01:43.953Z,84.53
2018-03-03T13:04:10.910Z,90.35
2018-03-03T13:06:37.182Z,91.55
2018-03-03T13:09:03.505Z,88.82
2018-03-03T13:11:29.710Z,78.72
2018-03-03T13:13:55.932Z,77.62
2018-03-03T13:16:22.171Z,75.82
2018-03-03T13:18:48.467Z,83.22
2018-03-03T13:21:15.430Z,81.15
2018-03-03T13:23:43.462Z,89.18
2018-03-03T13:26:10.675Z,81.12
2018-03-03T13:28:36.930Z,85.60
2018-03-03T13:31:03.154Z,89.28
2018-03-03T13:33:29.474Z,80.78
2018-03-03T13:35:55.727Z,84.47
2018-03-03T13:38:22.008Z,85.22
2018-03-03T13:40:48.349Z,82.22
2018-03-03T13:43:14.644Z,97.05
2018-03-03T13:45:42.045Z,92.43
2018-03-03T13:48:08.278Z,93.75
2018-03-03T13:50:34.621Z,85.90
2018-03-03T13:53:00.801Z,89.90
2018-03-03T13:55:27.776Z,91.50
2018-03-03T13:57:54.006Z,90.00
2018-03-03T14:00:20.254Z,88.90
2018-03-03T14:02:46.462Z,85.72
2018-03-03T14:05:12.708Z,90.62
2018-03-03T14:07:39.086Z,79.12
2018-03-03T14:10:06.077Z,86.32
2018-03-03T14:12:32.345Z,82.40
2018-03-03T14:14:58.670Z,68.65
2018-03-03T14:17:24.933Z,79.35
2018-03-03T14:19:51.114Z,76.30
2018-03-03T14:22:17.356Z,92.43
2018-03-03T14:24:43.575Z,88.95
2018-03-03T14:27:09.939Z,84.80
2018-03-03T14:29:36.177Z,88.07
2018-03-03T15:15:43.502Z,92.20
2018-03-03T15:18:09.902Z,84.03
2018-03-03T15:20:36.254Z,83.05
2018-03-03T15:23:02.561Z,87.03
2018-03-03T15:25:29.678Z,90.53
2018-03-03T15:27:56.790Z,87.80
2018-03-03T15:30:23.061Z,93.35
2018-03-03T15:32:49.398Z,86.25
2018-03-03T15:35:15.729Z,87.05
2018-03-03T15:37:42.922Z,90.15
2018-03-03T15:40:09.195Z,101.10
2018-03-03T15:42:36.863Z,95.25
2018-03-03T15:45:03.272Z,91.87
2018-03-03T15:47:31.035Z,89.97
2018-03-03T15:49:57.326Z,91.93
2018-03-03T15:52:24.280Z,85.43
2018-03-03T15:54:51.364Z,60.30
2018-03-03T15:57:18.305Z,57.67
2018-03-03T15:59:45.530Z,64.77
2018-03-03T16:02:12.490Z,62.80
2018-03-03T16:04:38.763Z,78.23
2018-03-03T16:07:04.939Z,81.10
2018-03-03T16:09:31.914Z,89.03
2018-03-03T16:11:58.160Z,81.68
2018-03-03T16:14:25.302Z,80.87
2018-03-03T16:16:53.075Z,88.53
2018-03-03T16:19:20.456Z,93.65
2018-03-03T16:21:47.005Z,103.55
2018-03-03T16:24:14.232Z,90.53
2018-03-03T16:26:40.765Z,88.37
2018-03-03T16:29:07.191Z,86.87
2018-03-03T16:31:33.584Z,94.25
2018-03-03T16:34:01.202Z,96.85
2018-03-03T16:36:28.249Z,99.10
2018-03-03T16:38:55.452Z,98.03
2018-03-03T16:41:21.915Z,86.18
2018-03-03T16:43:48.589Z,105.70
2018-03-03T16:46:16.660Z,88.15
2018-03-03T16:48:43.940Z,96.78
2018-03-03T16:51:10.441Z,98.78
2018-03-03T16:53:37.706Z,95.18
2018-03-03T16:56:04.339Z,91.78
2018-03-03T16:58:30.694Z,94.25
2018-03-03T17:00:57.242Z,94.75
2018-03-03T17:03:30.110Z,93.10
2018-03-03T17:05:56.593Z,101.65
2018-03-03T17:08:22.808Z,96.60
2018-03-03T17:10:49.112Z,96.35
2018-03-03T17:13:16.187Z,96.55
2018-03-03T17:15:42.438Z,96.12
2018-03-03T17:18:08.707Z,92.22
2018-03-03T17:20:35.978Z,100.15
2018-03-03T17:23:03.167Z,103.18
2018-03-03T17:25:29.422Z,105.40
2018-03-03T17:27:55.701Z,97.55
2018-03-03T17:30:21.988Z,102.03
2018-03-03T17:32:48.164Z,98.43
2018-03-03T17:35:14.407Z,115.05
2018-03-03T17:37:40.636Z,96.53
2018-03-03T17:40:06.880Z,99.18
2018-03-03T17:42:33.182Z,95.07
2018-03-03T17:44:59.490Z,104.07
2018-03-03T17:47:25.689Z,102.85
2018-03-03T17:49:51.966Z,111.12
2018-03-03T17:52:18.193Z,109.45
2018-03-03T17:54:44.525Z,105.70
2018-03-03T17:57:26.436Z,105.75
2018-03-03T17:59:52.688Z,107.68
2018-03-03T18:02:18.916Z,101.05
2018-03-03T18:04:45.126Z,107.57
2018-03-03T18:07:11.459Z,108.00
2018-03-03T18:09:37.795Z,115.95
2018-03-03T18:12:04.020Z,123.20
2018-03-03T18:14:30.269Z,110.28
2018-03-03T18:16:56.494Z,111.40
2018-03-03T18:19:38.613Z,108.25
2018-03-03T18:22:05.661Z,110.10
2018-03-03T18:24:35.736Z,111.12
2018-03-03T18:27:02.042Z,111.88
2018-03-03T18:29:29.036Z,119.20
2018-03-03T18:31:55.275Z,120.43
2018-03-03T18:34:21.457Z,109.22
2018-03-03T18:36:48.402Z,112.53
2018-03-03T18:39:15.453Z,104.35
2018-03-03T18:41:41.707Z,104.43
2018-03-03T18:44:07.956Z,112.72
2018-03-03T18:46:34.246Z,115.28
2018-03-03T18:49:01.228Z,116.57
2018-03-03T18:51:27.518Z,118.68
2018-03-03T18:53:54.498Z,103.25
2018-03-03T18:56:20.697Z,97.93
2018-03-03T18:58:47.654Z,104.07
2018-03-03T19:01:13.927Z,106.07
2018-03-03T19:03:40.173Z,117.50
2018-03-03T19:06:06.364Z,114.32
2018-03-03T19:08:32.628Z,107.55
2018-03-03T19:10:58.858Z,154.73
2018-03-03T19:13:25.166Z,155.65
2018-03-03T19:15:51.523Z,113.10
2018-03-03T19:18:17.839Z,141.95
2018-03-03T19:20:44.075Z,121.43
2018-03-03T19:23:10.347Z,122.70
2018-03-03T19:25:36.680Z,109.78
2018-03-03T19:28:02.981Z,111.80
2018-03-03T19:30:29.173Z,105.93
2018-03-03T19:32:55.399Z,114.37
2018-03-03T19:35:21.637Z,120.65
2018-03-03T19:37:47.854Z,104.87
2018-03-03T19:40:14.096Z,113.72
2018-03-03T19:42:40.284Z,111.80
2018-03-03T19:45:06.627Z,119.82
2018-03-03T19:47:32.876Z,120.35
2018-03-03T19:49:59.124Z,111.20
2018-03-03T19:52:25.327Z,115.65
2018-03-03T19:54:51.646Z,110.00
2018-03-03T19:57:17.951Z,125.15
2018-03-03T19:59:45.023Z,126.95
2018-03-03T20:02:11.844Z,117.80
2018-03-03T20:04:38.273Z,115.68
2018-03-03T20:07:05.280Z,114.00
2018-03-03T20:09:31.511Z,118.05
2018-03-03T20:11:57.743Z,119.37
2018-03-03T20:14:23.982Z,112.10
2018-03-03T20:16:51.027Z,118.00
2018-03-03T20:19:17.262Z,116.18
2018-03-03T20:21:43.549Z,120.32
2018-03-03T20:24:09.762Z,103.28
2018-03-03T20:26:35.995Z,113.03
2018-03-03T20:29:03.127Z,111.88
2018-03-03T20:31:30.142Z,113.65
2018-03-03T20:33:56.369Z,117.80
2018-03-03T20:36:22.628Z,116.78
2018-03-03T20:38:49.581Z,123.35
2018-03-03T20:41:16.569Z,116.88
2018-03-03T20:43:42.822Z,118.47
2018-03-03T20:46:09.076Z,126.90
2018-03-03T20:48:36.029Z,115.72
2018-03-03T20:51:03.035Z,125.90
2018-03-03T20:53:29.308Z,129.85
2018-03-03T20:55:56.267Z,126.25
2018-03-03T20:58:22.436Z,117.60
2018-03-03T21:00:48.634Z,141.00
2018-03-03T21:03:14.924Z,132.40
2018-03-03T21:05:41.374Z,84.25
2018-03-03T21:08:08.421Z,129.50
2018-03-03T21:10:35.467Z,132.30
2018-03-03T21:13:02.474Z,126.28
2018-03-03T21:15:28.759Z,125.32
2018-03-03T21:17:56.460Z,135.12
2018-03-03T21:20:23.484Z,127.57
2018-03-03T21:22:49.760Z,143.13
2018-03-03T21:25:16.093Z,135.57
2018-03-03T21:27:42.417Z,130.63
2018-03-03T21:30:08.691Z,135.25
2018-03-03T21:32:34.932Z,142.90
2018-03-03T21:35:01.243Z,146.43
2018-03-03T21:37:29.083Z,137.45
2018-03-03T21:39:55.345Z,133.65
2018-03-03T21:42:22.297Z,125.05
2018-03-03T21:44:48.550Z,135.93
2018-03-03T21:47:14.837Z,69.85
2018-03-03T21:49:41.830Z,120.70
2018-03-03T21:52:08.069Z,128.87
2018-03-03T21:54:49.314Z,131.77
2018-03-03T21:59:53.893Z,147.20
2018-03-03T22:02:20.101Z,133.15
2018-03-03T22:04:46.342Z,139.95
2018-03-03T22:07:12.610Z,128.38
2018-03-03T22:09:38.857Z,130.60
2018-03-03T22:12:05.826Z,138.60
2018-03-03T22:14:32.210Z,133.37
2018-03-03T22:16:58.570Z,131.45
2018-03-03T22:19:25.533Z,138.40
2018-03-03T22:21:51.825Z,132.95
2018-03-03T22:24:18.201Z,133.32
2018-03-03T22:26:44.612Z,134.87
2018-03-03T22:29:11.007Z,142.18
2018-03-03T22:31:37.280Z,134.45
2018-03-03T22:34:04.262Z,141.73
2018-03-03T22:36:30.558Z,150.80
2018-03-03T22:38:57.551Z,134.57
2018-03-03T22:41:23.907Z,141.73
2018-03-03T22:43:50.240Z,135.20
2018-03-03T22:46:18.845Z,84.93
2018-03-03T22:48:45.884Z,136.43
2018-03-03T22:51:12.113Z,124.18
2018-03-03T22:53:40.095Z,128.20
2018-03-03T22:56:08.103Z,141.10
2018-03-03T22:58:35.973Z,145.90
2018-03-03T23:01:04.248Z,142.65
2018-03-03T23:03:30.822Z,136.60
2018-03-03T23:05:57.940Z,139.37
2018-03-03T23:08:24.915Z,130.57
2018-03-03T23:10:52.250Z,135.45
2018-03-03T23:13:18.505Z,134.15
2018-03-03T23:15:45.599Z,145.32
2018-03-03T23:18:11.911Z,138.45
2018-03-03T23:20:38.869Z,128.87
2018-03-03T23:23:05.187Z,140.18
2018-03-03T23:25:33.672Z,142.77
2018-03-03T23:28:00.725Z,139.88
2018-03-03T23:30:27.703Z,148.70
2018-03-03T23:32:53.919Z,159.25
2018-03-03T23:35:20.199Z,147.68
2018-03-03T23:37:46.398Z,135.30
2018-03-03T23:40:14.555Z,141.68
2018-03-03T23:42:40.813Z,139.12
2018-03-03T23:45:07.528Z,146.05
2018-03-03T23:47:33.843Z,133.80
2018-03-03T23:50:00.060Z,156.73
2018-03-03T23:52:28.016Z,140.65
2018-03-03T23:54:55.016Z,131.27
2018-03-03T23:57:22.319Z,129.40
2018-03-03T23:59:49.330Z,155.52
